Terminal Aerodrome Forecast
Issued by NWS Mt. Holly, NJ

Home | Current Version | Previous Version | Text Only | Print | Product List | Glossary On
Versions: 1 2 3 4 5 6 7 8 9 10 11 12 13 14 15 16 17 18 19 20 21 22 23 24 25 26 27
000
FTUS41 KPHI 202338
TAFPHL
TAF
KPHL 202338Z 2100/2206 16010KT P6SM VCSH SCT040 BKN080
      TEMPO 2101/2104 27018G30KT 2SM +TSRA BKN020CB
     FM210500 24010KT P6SM VCSH BKN040
     FM210700 27011KT 6SM BR BKN040
     FM211200 28013G25KT P6SM SCT050
     FM220000 25010KT P6SM SCT070=

USA.gov is the U.S. government's official web portal to all federal, state and local government web resources and services.